sensor_id;sensor_type;location;lat;lon;timestamp;P1;durP1;ratioP1;P2;durP2;ratioP2
8514;SDS011;4295;51.024;7.000;2022-10-22T00:00:37;79.27;;;8.77;;
8514;SDS011;4295;51.024;7.000;2022-10-22T00:03:02;78.00;;;9.73;;
8514;SDS011;4295;51.024;7.000;2022-10-22T00:05:28;78.90;;;8.40;;
8514;SDS011;4295;51.024;7.000;2022-10-22T00:07:53;78.90;;;8.80;;
8514;SDS011;4295;51.024;7.000;2022-10-22T00:10:18;76.07;;;8.20;;
8514;SDS011;4295;51.024;7.000;2022-10-22T00:12:44;79.37;;;9.50;;
8514;SDS011;4295;51.024;7.000;2022-10-22T00:15:09;79.93;;;10.70;;
8514;SDS011;4295;51.024;7.000;2022-10-22T00:17:35;85.40;;;9.13;;
8514;SDS011;4295;51.024;7.000;2022-10-22T00:20:00;81.17;;;10.00;;
8514;SDS011;4295;51.024;7.000;2022-10-22T00:22:26;79.50;;;8.90;;
8514;SDS011;4295;51.024;7.000;2022-10-22T00:24:51;81.00;;;10.00;;
8514;SDS011;4295;51.024;7.000;2022-10-22T00:27:16;77.00;;;8.73;;
8514;SDS011;4295;51.024;7.000;2022-10-22T00:29:42;79.80;;;8.77;;
8514;SDS011;4295;51.024;7.000;2022-10-22T00:32:07;79.40;;;9.50;;
8514;SDS011;4295;51.024;7.000;2022-10-22T00:34:32;78.37;;;8.73;;
8514;SDS011;4295;51.024;7.000;2022-10-22T00:36:58;78.23;;;9.17;;
8514;SDS011;4295;51.024;7.000;2022-10-22T00:39:23;76.67;;;9.17;;
8514;SDS011;4295;51.024;7.000;2022-10-22T00:41:51;80.30;;;9.37;;
8514;SDS011;4295;51.024;7.000;2022-10-22T00:47:28;76.57;;;8.90;;
8514;SDS011;4295;51.024;7.000;2022-10-22T00:49:57;82.57;;;9.07;;
8514;SDS011;4295;51.024;7.000;2022-10-22T00:52:24;80.23;;;8.90;;
8514;SDS011;4295;51.024;7.000;2022-10-22T00:54:49;78.50;;;9.40;;
8514;SDS011;4295;51.024;7.000;2022-10-22T00:57:15;75.20;;;8.63;;
8514;SDS011;4295;51.024;7.000;2022-10-22T00:59:43;76.97;;;9.30;;
8514;SDS011;4295;51.024;7.000;2022-10-22T01:02:09;83.40;;;9.27;;
8514;SDS011;4295;51.024;7.000;2022-10-22T01:04:35;82.13;;;9.17;;
8514;SDS011;4295;51.024;7.000;2022-10-22T01:07:00;77.43;;;9.03;;
8514;SDS011;4295;51.024;7.000;2022-10-22T01:30:30;74.57;;;8.27;;
8514;SDS011;4295;51.024;7.000;2022-10-22T01:32:56;77.40;;;8.97;;
8514;SDS011;4295;51.024;7.000;2022-10-22T01:35:26;77.27;;;9.03;;
8514;SDS011;4295;51.024;7.000;2022-10-22T01:37:57;80.13;;;9.30;;
8514;SDS011;4295;51.024;7.000;2022-10-22T01:40:25;77.40;;;9.00;;
8514;SDS011;4295;51.024;7.000;2022-10-22T01:42:56;80.77;;;8.20;;
8514;SDS011;4295;51.024;7.000;2022-10-22T01:45:29;76.97;;;9.10;;
8514;SDS011;4295;51.024;7.000;2022-10-22T02:07:10;80.70;;;9.60;;
8514;SDS011;4295;51.024;7.000;2022-10-22T02:09:39;80.57;;;9.77;;
8514;SDS011;4295;51.024;7.000;2022-10-22T02:12:07;77.17;;;9.43;;
8514;SDS011;4295;51.024;7.000;2022-10-22T02:14:35;80.13;;;9.80;;
8514;SDS011;4295;51.024;7.000;2022-10-22T02:17:03;77.87;;;9.40;;
8514;SDS011;4295;51.024;7.000;2022-10-22T02:19:35;78.50;;;8.93;;
8514;SDS011;4295;51.024;7.000;2022-10-22T02:22:06;78.60;;;9.07;;
8514;SDS011;4295;51.024;7.000;2022-10-22T02:24:31;81.00;;;9.60;;
8514;SDS011;4295;51.024;7.000;2022-10-22T02:35:39;81.27;;;10.10;;
8514;SDS011;4295;51.024;7.000;2022-10-22T02:38:06;80.93;;;8.93;;
8514;SDS011;4295;51.024;7.000;2022-10-22T02:40:33;80.20;;;10.37;;
8514;SDS011;4295;51.024;7.000;2022-10-22T02:42:58;78.03;;;9.57;;
8514;SDS011;4295;51.024;7.000;2022-10-22T02:45:24;80.23;;;9.90;;
8514;SDS011;4295;51.024;7.000;2022-10-22T02:47:49;77.20;;;9.50;;
8514;SDS011;4295;51.024;7.000;2022-10-22T02:50:15;79.87;;;9.30;;
8514;SDS011;4295;51.024;7.000;2022-10-22T02:52:40;79.90;;;10.10;;
8514;SDS011;4295;51.024;7.000;2022-10-22T02:55:06;84.10;;;10.23;;
8514;SDS011;4295;51.024;7.000;2022-10-22T02:57:32;81.03;;;9.10;;
8514;SDS011;4295;51.024;7.000;2022-10-22T02:59:57;77.80;;;9.17;;
8514;SDS011;4295;51.024;7.000;2022-10-22T03:02:23;76.40;;;8.10;;
8514;SDS011;4295;51.024;7.000;2022-10-22T03:04:48;78.57;;;9.23;;
8514;SDS011;4295;51.024;7.000;2022-10-22T03:07:13;77.30;;;8.67;;
8514;SDS011;4295;51.024;7.000;2022-10-22T03:09:39;83.10;;;9.30;;
8514;SDS011;4295;51.024;7.000;2022-10-22T03:12:05;78.80;;;8.33;;
8514;SDS011;4295;51.024;7.000;2022-10-22T03:14:30;77.40;;;8.70;;
8514;SDS011;4295;51.024;7.000;2022-10-22T03:16:55;78.33;;;8.90;;
8514;SDS011;4295;51.024;7.000;2022-10-22T03:19:21;82.73;;;9.07;;
8514;SDS011;4295;51.024;7.000;2022-10-22T03:21:52;81.10;;;9.37;;
8514;SDS011;4295;51.024;7.000;2022-10-22T03:24:21;75.00;;;8.93;;
8514;SDS011;4295;51.024;7.000;2022-10-22T03:26:50;76.47;;;7.70;;
8514;SDS011;4295;51.024;7.000;2022-10-22T03:29:16;76.73;;;8.67;;
8514;SDS011;4295;51.024;7.000;2022-10-22T03:31:44;80.97;;;9.00;;
8514;SDS011;4295;51.024;7.000;2022-10-22T03:34:09;80.07;;;9.90;;
8514;SDS011;4295;51.024;7.000;2022-10-22T03:36:36;80.97;;;11.47;;
8514;SDS011;4295;51.024;7.000;2022-10-22T03:39:02;84.30;;;10.10;;
8514;SDS011;4295;51.024;7.000;2022-10-22T03:41:29;77.87;;;9.70;;
8514;SDS011;4295;51.024;7.000;2022-10-22T03:43:55;77.50;;;9.50;;
8514;SDS011;4295;51.024;7.000;2022-10-22T03:46:21;79.53;;;8.93;;
8514;SDS011;4295;51.024;7.000;2022-10-22T03:48:47;79.33;;;8.10;;
8514;SDS011;4295;51.024;7.000;2022-10-22T03:51:12;77.07;;;8.20;;
8514;SDS011;4295;51.024;7.000;2022-10-22T03:53:37;76.70;;;8.53;;
8514;SDS011;4295;51.024;7.000;2022-10-22T03:56:06;76.80;;;8.60;;
8514;SDS011;4295;51.024;7.000;2022-10-22T03:58:33;75.37;;;8.67;;
8514;SDS011;4295;51.024;7.000;2022-10-22T04:01:03;77.97;;;7.87;;
8514;SDS011;4295;51.024;7.000;2022-10-22T04:03:37;78.70;;;8.53;;
8514;SDS011;4295;51.024;7.000;2022-10-22T04:06:05;75.10;;;8.43;;
8514;SDS011;4295;51.024;7.000;2022-10-22T04:08:32;78.87;;;8.50;;
8514;SDS011;4295;51.024;7.000;2022-10-22T04:10:57;75.90;;;8.40;;
8514;SDS011;4295;51.024;7.000;2022-10-22T04:13:23;78.03;;;8.60;;
8514;SDS011;4295;51.024;7.000;2022-10-22T04:15:48;77.20;;;8.43;;
8514;SDS011;4295;51.024;7.000;2022-10-22T04:18:15;77.27;;;8.50;;
8514;SDS011;4295;51.024;7.000;2022-10-22T04:20:45;78.60;;;8.50;;
8514;SDS011;4295;51.024;7.000;2022-10-22T04:23:11;76.37;;;7.80;;
8514;SDS011;4295;51.024;7.000;2022-10-22T04:25:36;79.27;;;8.30;;
8514;SDS011;4295;51.024;7.000;2022-10-22T04:28:02;80.03;;;9.53;;
8514;SDS011;4295;51.024;7.000;2022-10-22T04:30:31;85.80;;;10.73;;
8514;SDS011;4295;51.024;7.000;2022-10-22T04:32:56;79.20;;;9.77;;
8514;SDS011;4295;51.024;7.000;2022-10-22T04:35:21;77.57;;;9.43;;
8514;SDS011;4295;51.024;7.000;2022-10-22T04:37:47;83.07;;;8.40;;
8514;SDS011;4295;51.024;7.000;2022-10-22T04:40:12;77.73;;;9.20;;
8514;SDS011;4295;51.024;7.000;2022-10-22T04:42:37;76.70;;;7.90;;
8514;SDS011;4295;51.024;7.000;2022-10-22T04:45:03;81.03;;;8.50;;
8514;SDS011;4295;51.024;7.000;2022-10-22T04:47:28;78.17;;;8.57;;
8514;SDS011;4295;51.024;7.000;2022-10-22T04:49:53;78.53;;;8.10;;
8514;SDS011;4295;51.024;7.000;2022-10-22T04:52:19;76.00;;;8.07;;
8514;SDS011;4295;51.024;7.000;2022-10-22T04:54:44;79.30;;;8.20;;
8514;SDS011;4295;51.024;7.000;2022-10-22T04:57:11;79.50;;;8.80;;
8514;SDS011;4295;51.024;7.000;2022-10-22T04:59:36;77.10;;;8.70;;
8514;SDS011;4295;51.024;7.000;2022-10-22T05:02:02;79.20;;;8.50;;
8514;SDS011;4295;51.024;7.000;2022-10-22T05:04:27;79.03;;;8.03;;
8514;SDS011;4295;51.024;7.000;2022-10-22T05:06:52;85.70;;;8.50;;
8514;SDS011;4295;51.024;7.000;2022-10-22T05:09:19;78.67;;;8.90;;
8514;SDS011;4295;51.024;7.000;2022-10-22T05:11:46;83.03;;;7.90;;
8514;SDS011;4295;51.024;7.000;2022-10-22T05:14:14;82.10;;;8.70;;
8514;SDS011;4295;51.024;7.000;2022-10-22T05:16:41;77.63;;;9.80;;
8514;SDS011;4295;51.024;7.000;2022-10-22T05:19:07;78.80;;;9.57;;
8514;SDS011;4295;51.024;7.000;2022-10-22T05:21:32;83.80;;;10.80;;
8514;SDS011;4295;51.024;7.000;2022-10-22T05:23:58;82.73;;;9.97;;
8514;SDS011;4295;51.024;7.000;2022-10-22T05:26:24;79.43;;;9.30;;
8514;SDS011;4295;51.024;7.000;2022-10-22T05:28:50;81.03;;;10.03;;
8514;SDS011;4295;51.024;7.000;2022-10-22T05:31:16;78.33;;;8.93;;
8514;SDS011;4295;51.024;7.000;2022-10-22T05:33:43;80.20;;;9.33;;
8514;SDS011;4295;51.024;7.000;2022-10-22T05:36:13;77.90;;;9.07;;
8514;SDS011;4295;51.024;7.000;2022-10-22T05:38:40;75.93;;;8.40;;
8514;SDS011;4295;51.024;7.000;2022-10-22T05:41:06;78.87;;;9.67;;
8514;SDS011;4295;51.024;7.000;2022-10-22T05:43:34;84.90;;;8.97;;
8514;SDS011;4295;51.024;7.000;2022-10-22T05:46:00;77.40;;;9.40;;
8514;SDS011;4295;51.024;7.000;2022-10-22T05:48:30;78.80;;;8.83;;
8514;SDS011;4295;51.024;7.000;2022-10-22T05:50:55;80.17;;;9.03;;
8514;SDS011;4295;51.024;7.000;2022-10-22T05:53:21;79.97;;;9.33;;
8514;SDS011;4295;51.024;7.000;2022-10-22T05:55:46;76.60;;;8.40;;
8514;SDS011;4295;51.024;7.000;2022-10-22T05:58:12;76.40;;;8.87;;
8514;SDS011;4295;51.024;7.000;2022-10-22T06:00:37;82.53;;;8.90;;
8514;SDS011;4295;51.024;7.000;2022-10-22T06:03:03;76.60;;;8.40;;
8514;SDS011;4295;51.024;7.000;2022-10-22T06:05:29;76.70;;;8.17;;
8514;SDS011;4295;51.024;7.000;2022-10-22T06:07:55;79.37;;;9.50;;
8514;SDS011;4295;51.024;7.000;2022-10-22T06:10:21;76.30;;;9.20;;
8514;SDS011;4295;51.024;7.000;2022-10-22T06:12:47;80.10;;;9.73;;
8514;SDS011;4295;51.024;7.000;2022-10-22T06:15:14;78.87;;;9.87;;
8514;SDS011;4295;51.024;7.000;2022-10-22T06:17:42;80.57;;;9.33;;
8514;SDS011;4295;51.024;7.000;2022-10-22T06:20:09;89.67;;;11.03;;
8514;SDS011;4295;51.024;7.000;2022-10-22T06:22:35;78.30;;;10.50;;
8514;SDS011;4295;51.024;7.000;2022-10-22T06:25:00;79.37;;;9.83;;
8514;SDS011;4295;51.024;7.000;2022-10-22T06:27:25;84.47;;;11.40;;
8514;SDS011;4295;51.024;7.000;2022-10-22T06:29:51;87.83;;;11.13;;
8514;SDS011;4295;51.024;7.000;2022-10-22T06:32:16;80.77;;;12.70;;
8514;SDS011;4295;51.024;7.000;2022-10-22T06:34:41;83.07;;;12.33;;
8514;SDS011;4295;51.024;7.000;2022-10-22T06:37:08;80.00;;;13.07;;
8514;SDS011;4295;51.024;7.000;2022-10-22T06:39:34;85.47;;;11.97;;
8514;SDS011;4295;51.024;7.000;2022-10-22T06:41:59;80.07;;;13.03;;
8514;SDS011;4295;51.024;7.000;2022-10-22T06:44:24;79.30;;;12.43;;
8514;SDS011;4295;51.024;7.000;2022-10-22T06:46:50;79.77;;;12.97;;
8514;SDS011;4295;51.024;7.000;2022-10-22T06:49:16;84.70;;;12.47;;
8514;SDS011;4295;51.024;7.000;2022-10-22T06:51:42;80.10;;;12.10;;
8514;SDS011;4295;51.024;7.000;2022-10-22T06:54:07;82.70;;;11.30;;
8514;SDS011;4295;51.024;7.000;2022-10-22T06:56:33;78.40;;;12.03;;
8514;SDS011;4295;51.024;7.000;2022-10-22T06:58:58;79.50;;;12.20;;
8514;SDS011;4295;51.024;7.000;2022-10-22T07:01:25;83.43;;;11.60;;
8514;SDS011;4295;51.024;7.000;2022-10-22T07:03:53;79.83;;;11.50;;
8514;SDS011;4295;51.024;7.000;2022-10-22T07:06:19;86.40;;;10.60;;
8514;SDS011;4295;51.024;7.000;2022-10-22T07:08:46;83.20;;;10.87;;
8514;SDS011;4295;51.024;7.000;2022-10-22T07:11:21;79.60;;;10.77;;
8514;SDS011;4295;51.024;7.000;2022-10-22T07:13:49;84.60;;;10.90;;
8514;SDS011;4295;51.024;7.000;2022-10-22T07:16:15;80.30;;;10.60;;
8514;SDS011;4295;51.024;7.000;2022-10-22T07:18:42;79.87;;;11.37;;
8514;SDS011;4295;51.024;7.000;2022-10-22T07:21:09;83.80;;;11.30;;
8514;SDS011;4295;51.024;7.000;2022-10-22T07:23:36;80.57;;;10.77;;
8514;SDS011;4295;51.024;7.000;2022-10-22T07:26:01;77.20;;;10.90;;
8514;SDS011;4295;51.024;7.000;2022-10-22T07:28:28;89.53;;;11.83;;
8514;SDS011;4295;51.024;7.000;2022-10-22T07:30:54;87.00;;;12.17;;
8514;SDS011;4295;51.024;7.000;2022-10-22T07:33:19;82.63;;;12.33;;
8514;SDS011;4295;51.024;7.000;2022-10-22T07:35:45;83.40;;;12.10;;
8514;SDS011;4295;51.024;7.000;2022-10-22T07:38:10;78.60;;;11.23;;
8514;SDS011;4295;51.024;7.000;2022-10-22T07:40:36;79.20;;;13.00;;
8514;SDS011;4295;51.024;7.000;2022-10-22T07:43:02;81.40;;;13.43;;
8514;SDS011;4295;51.024;7.000;2022-10-22T07:45:27;84.60;;;14.23;;
8514;SDS011;4295;51.024;7.000;2022-10-22T07:47:53;83.60;;;13.80;;
8514;SDS011;4295;51.024;7.000;2022-10-22T07:50:18;82.47;;;14.00;;
8514;SDS011;4295;51.024;7.000;2022-10-22T07:52:43;78.97;;;13.40;;
8514;SDS011;4295;51.024;7.000;2022-10-22T07:55:09;81.77;;;12.70;;
8514;SDS011;4295;51.024;7.000;2022-10-22T07:57:35;80.07;;;13.23;;
8514;SDS011;4295;51.024;7.000;2022-10-22T08:00:03;84.80;;;12.77;;
8514;SDS011;4295;51.024;7.000;2022-10-22T08:02:30;88.73;;;12.63;;
8514;SDS011;4295;51.024;7.000;2022-10-22T08:04:55;81.30;;;13.47;;
8514;SDS011;4295;51.024;7.000;2022-10-22T08:07:21;80.17;;;12.47;;
8514;SDS011;4295;51.024;7.000;2022-10-22T08:09:47;84.37;;;13.60;;
8514;SDS011;4295;51.024;7.000;2022-10-22T08:12:12;80.77;;;12.30;;
8514;SDS011;4295;51.024;7.000;2022-10-22T08:14:37;82.80;;;11.50;;
8514;SDS011;4295;51.024;7.000;2022-10-22T08:17:03;80.33;;;11.63;;
8514;SDS011;4295;51.024;7.000;2022-10-22T08:19:28;79.80;;;12.00;;
8514;SDS011;4295;51.024;7.000;2022-10-22T08:21:56;80.90;;;11.43;;
8514;SDS011;4295;51.024;7.000;2022-10-22T08:24:22;78.33;;;10.33;;
8514;SDS011;4295;51.024;7.000;2022-10-22T08:26:47;81.80;;;11.20;;
8514;SDS011;4295;51.024;7.000;2022-10-22T08:29:12;80.43;;;10.57;;
8514;SDS011;4295;51.024;7.000;2022-10-22T08:31:38;89.10;;;9.77;;
8514;SDS011;4295;51.024;7.000;2022-10-22T08:34:03;78.87;;;9.20;;
8514;SDS011;4295;51.024;7.000;2022-10-22T08:36:29;79.47;;;9.23;;
8514;SDS011;4295;51.024;7.000;2022-10-22T08:38:55;80.83;;;9.23;;
8514;SDS011;4295;51.024;7.000;2022-10-22T08:41:21;77.60;;;8.97;;
8514;SDS011;4295;51.024;7.000;2022-10-22T08:44:13;76.53;;;8.63;;
8514;SDS011;4295;51.024;7.000;2022-10-22T08:47:01;80.70;;;7.83;;
8514;SDS011;4295;51.024;7.000;2022-10-22T08:49:40;76.37;;;8.30;;
8514;SDS011;4295;51.024;7.000;2022-10-22T08:52:09;83.07;;;8.87;;
8514;SDS011;4295;51.024;7.000;2022-10-22T09:02:59;77.30;;;8.50;;
8514;SDS011;4295;51.024;7.000;2022-10-22T09:05:37;81.60;;;8.83;;
8514;SDS011;4295;51.024;7.000;2022-10-22T09:08:03;76.93;;;8.27;;
8514;SDS011;4295;51.024;7.000;2022-10-22T09:10:32;77.17;;;8.73;;
8514;SDS011;4295;51.024;7.000;2022-10-22T09:13:00;77.07;;;7.43;;
8514;SDS011;4295;51.024;7.000;2022-10-22T09:15:26;76.00;;;8.03;;
8514;SDS011;4295;51.024;7.000;2022-10-22T09:23:51;78.07;;;7.70;;
8514;SDS011;4295;51.024;7.000;2022-10-22T09:26:24;76.90;;;8.20;;
8514;SDS011;4295;51.024;7.000;2022-10-22T09:28:50;76.80;;;7.83;;
8514;SDS011;4295;51.024;7.000;2022-10-22T09:31:16;75.07;;;7.33;;
8514;SDS011;4295;51.024;7.000;2022-10-22T09:33:42;79.23;;;7.60;;
8514;SDS011;4295;51.024;7.000;2022-10-22T09:36:15;78.37;;;6.83;;
8514;SDS011;4295;51.024;7.000;2022-10-22T09:38:46;87.73;;;7.60;;
8514;SDS011;4295;51.024;7.000;2022-10-22T09:41:13;77.17;;;7.20;;
8514;SDS011;4295;51.024;7.000;2022-10-22T09:43:39;74.90;;;6.70;;
8514;SDS011;4295;51.024;7.000;2022-10-22T09:46:13;78.20;;;8.33;;
8514;SDS011;4295;51.024;7.000;2022-10-22T09:48:41;76.17;;;7.50;;
8514;SDS011;4295;51.024;7.000;2022-10-22T09:54:22;81.13;;;7.37;;
8514;SDS011;4295;51.024;7.000;2022-10-22T09:56:53;79.30;;;7.77;;
8514;SDS011;4295;51.024;7.000;2022-10-22T09:59:26;80.50;;;7.70;;
8514;SDS011;4295;51.024;7.000;2022-10-22T10:01:58;76.00;;;7.80;;
8514;SDS011;4295;51.024;7.000;2022-10-22T10:04:27;78.87;;;7.57;;
8514;SDS011;4295;51.024;7.000;2022-10-22T10:06:58;77.30;;;6.57;;
8514;SDS011;4295;51.024;7.000;2022-10-22T10:09:24;80.97;;;6.70;;
8514;SDS011;4295;51.024;7.000;2022-10-22T10:19:43;74.90;;;6.20;;
8514;SDS011;4295;51.024;7.000;2022-10-22T10:27:52;90.40;;;13.13;;
8514;SDS011;4295;51.024;7.000;2022-10-22T10:30:25;77.50;;;6.80;;
8514;SDS011;4295;51.024;7.000;2022-10-22T10:36:12;77.53;;;5.60;;
8514;SDS011;4295;51.024;7.000;2022-10-22T10:44:13;77.50;;;6.07;;
8514;SDS011;4295;51.024;7.000;2022-10-22T10:49:36;77.37;;;6.20;;
8514;SDS011;4295;51.024;7.000;2022-10-22T10:52:09;78.47;;;5.70;;
8514;SDS011;4295;51.024;7.000;2022-10-22T10:57:44;75.57;;;5.60;;
8514;SDS011;4295;51.024;7.000;2022-10-22T11:00:19;74.60;;;4.87;;
8514;SDS011;4295;51.024;7.000;2022-10-22T11:05:53;78.93;;;6.83;;
8514;SDS011;4295;51.024;7.000;2022-10-22T11:11:18;74.23;;;5.03;;
8514;SDS011;4295;51.024;7.000;2022-10-22T11:19:06;78.13;;;6.00;;
8514;SDS011;4295;51.024;7.000;2022-10-22T11:21:52;76.97;;;5.80;;
8514;SDS011;4295;51.024;7.000;2022-10-22T11:24:24;76.23;;;5.40;;
8514;SDS011;4295;51.024;7.000;2022-10-22T11:27:03;76.27;;;5.30;;
8514;SDS011;4295;51.024;7.000;2022-10-22T11:29:40;80.93;;;6.03;;
8514;SDS011;4295;51.024;7.000;2022-10-22T11:32:16;76.60;;;5.77;;
8514;SDS011;4295;51.024;7.000;2022-10-22T11:34:50;75.63;;;5.67;;
8514;SDS011;4295;51.024;7.000;2022-10-22T11:37:20;77.10;;;6.00;;
8514;SDS011;4295;51.024;7.000;2022-10-22T11:47:25;77.77;;;5.60;;
8514;SDS011;4295;51.024;7.000;2022-10-22T11:50:02;78.70;;;5.70;;
8514;SDS011;4295;51.024;7.000;2022-10-22T11:52:52;75.27;;;6.00;;
8514;SDS011;4295;51.024;7.000;2022-10-22T11:55:47;77.40;;;5.80;;
8514;SDS011;4295;51.024;7.000;2022-10-22T12:00:50;76.63;;;5.93;;
8514;SDS011;4295;51.024;7.000;2022-10-22T12:03:16;79.70;;;5.80;;
8514;SDS011;4295;51.024;7.000;2022-10-22T12:06:07;73.60;;;5.40;;
8514;SDS011;4295;51.024;7.000;2022-10-22T12:11:35;73.20;;;5.50;;
8514;SDS011;4295;51.024;7.000;2022-10-22T12:19:31;74.17;;;5.47;;
8514;SDS011;4295;51.024;7.000;2022-10-22T12:24:36;74.37;;;5.37;;
8514;SDS011;4295;51.024;7.000;2022-10-22T12:27:14;75.00;;;6.10;;
8514;SDS011;4295;51.024;7.000;2022-10-22T12:29:41;72.77;;;5.90;;
8514;SDS011;4295;51.024;7.000;2022-10-22T12:32:09;73.40;;;5.17;;
8514;SDS011;4295;51.024;7.000;2022-10-22T12:34:43;74.37;;;5.57;;
8514;SDS011;4295;51.024;7.000;2022-10-22T12:37:13;73.80;;;5.87;;
8514;SDS011;4295;51.024;7.000;2022-10-22T12:39:40;72.90;;;5.37;;
8514;SDS011;4295;51.024;7.000;2022-10-22T12:42:06;74.43;;;5.93;;
8514;SDS011;4295;51.024;7.000;2022-10-22T12:44:36;72.97;;;5.63;;
8514;SDS011;4295;51.024;7.000;2022-10-22T12:47:02;72.57;;;5.40;;
8514;SDS011;4295;51.024;7.000;2022-10-22T12:49:35;74.87;;;5.70;;
8514;SDS011;4295;51.024;7.000;2022-10-22T12:52:04;71.80;;;4.93;;
8514;SDS011;4295;51.024;7.000;2022-10-22T12:54:32;73.10;;;4.80;;
8514;SDS011;4295;51.024;7.000;2022-10-22T12:56:59;72.37;;;5.03;;
8514;SDS011;4295;51.024;7.000;2022-10-22T13:01:53;73.40;;;5.10;;
8514;SDS011;4295;51.024;7.000;2022-10-22T13:09:56;72.57;;;5.40;;
8514;SDS011;4295;51.024;7.000;2022-10-22T13:12:24;75.20;;;4.97;;
8514;SDS011;4295;51.024;7.000;2022-10-22T13:14:51;72.07;;;4.93;;
8514;SDS011;4295;51.024;7.000;2022-10-22T13:17:35;70.87;;;4.60;;
8514;SDS011;4295;51.024;7.000;2022-10-22T13:20:03;72.13;;;5.00;;
8514;SDS011;4295;51.024;7.000;2022-10-22T13:22:40;74.43;;;5.20;;
8514;SDS011;4295;51.024;7.000;2022-10-22T13:25:22;71.63;;;5.40;;
8514;SDS011;4295;51.024;7.000;2022-10-22T13:27:54;73.60;;;5.20;;
8514;SDS011;4295;51.024;7.000;2022-10-22T13:30:35;73.57;;;5.43;;
8514;SDS011;4295;51.024;7.000;2022-10-22T13:33:05;71.87;;;4.90;;
8514;SDS011;4295;51.024;7.000;2022-10-22T13:35:46;71.53;;;5.10;;
8514;SDS011;4295;51.024;7.000;2022-10-22T13:38:17;78.27;;;5.13;;
8514;SDS011;4295;51.024;7.000;2022-10-22T13:40:44;72.53;;;4.80;;
8514;SDS011;4295;51.024;7.000;2022-10-22T13:43:10;72.20;;;5.30;;
8514;SDS011;4295;51.024;7.000;2022-10-22T13:45:35;71.40;;;5.53;;
8514;SDS011;4295;51.024;7.000;2022-10-22T13:48:00;73.47;;;5.13;;
8514;SDS011;4295;51.024;7.000;2022-10-22T13:50:26;77.33;;;6.00;;
8514;SDS011;4295;51.024;7.000;2022-10-22T13:52:52;73.90;;;5.07;;
8514;SDS011;4295;51.024;7.000;2022-10-22T13:55:22;72.57;;;5.53;;
8514;SDS011;4295;51.024;7.000;2022-10-22T13:57:49;75.83;;;5.27;;
8514;SDS011;4295;51.024;7.000;2022-10-22T14:00:17;73.10;;;5.30;;
8514;SDS011;4295;51.024;7.000;2022-10-22T14:02:43;71.00;;;5.47;;
8514;SDS011;4295;51.024;7.000;2022-10-22T14:05:11;70.37;;;5.10;;
8514;SDS011;4295;51.024;7.000;2022-10-22T14:07:37;72.47;;;5.23;;
8514;SDS011;4295;51.024;7.000;2022-10-22T14:12:58;70.23;;;5.10;;
8514;SDS011;4295;51.024;7.000;2022-10-22T14:15:23;75.40;;;4.90;;
8514;SDS011;4295;51.024;7.000;2022-10-22T14:17:53;75.77;;;5.23;;
8514;SDS011;4295;51.024;7.000;2022-10-22T14:20:21;71.70;;;4.97;;
8514;SDS011;4295;51.024;7.000;2022-10-22T14:22:49;70.70;;;4.50;;
8514;SDS011;4295;51.024;7.000;2022-10-22T14:25:16;81.97;;;5.53;;
8514;SDS011;4295;51.024;7.000;2022-10-22T14:27:44;76.40;;;5.40;;
8514;SDS011;4295;51.024;7.000;2022-10-22T14:30:17;72.47;;;5.07;;
8514;SDS011;4295;51.024;7.000;2022-10-22T14:32:44;72.50;;;4.87;;
8514;SDS011;4295;51.024;7.000;2022-10-22T14:35:11;75.67;;;5.27;;
8514;SDS011;4295;51.024;7.000;2022-10-22T14:37:38;70.97;;;4.80;;
8514;SDS011;4295;51.024;7.000;2022-10-22T14:40:04;70.40;;;4.83;;
8514;SDS011;4295;51.024;7.000;2022-10-22T14:42:30;74.20;;;5.70;;
8514;SDS011;4295;51.024;7.000;2022-10-22T14:45:02;73.70;;;5.10;;
8514;SDS011;4295;51.024;7.000;2022-10-22T14:47:28;73.57;;;5.60;;
8514;SDS011;4295;51.024;7.000;2022-10-22T14:49:53;75.63;;;5.13;;
8514;SDS011;4295;51.024;7.000;2022-10-22T14:52:19;74.30;;;5.00;;
8514;SDS011;4295;51.024;7.000;2022-10-22T14:54:44;72.37;;;5.37;;
8514;SDS011;4295;51.024;7.000;2022-10-22T14:57:10;71.17;;;4.67;;
8514;SDS011;4295;51.024;7.000;2022-10-22T14:59:38;76.33;;;4.97;;
8514;SDS011;4295;51.024;7.000;2022-10-22T15:02:03;93.17;;;6.27;;
8514;SDS011;4295;51.024;7.000;2022-10-22T15:04:29;71.70;;;4.50;;
8514;SDS011;4295;51.024;7.000;2022-10-22T15:06:54;73.97;;;7.00;;
8514;SDS011;4295;51.024;7.000;2022-10-22T15:09:21;71.83;;;5.37;;
8514;SDS011;4295;51.024;7.000;2022-10-22T15:11:47;73.37;;;5.17;;
8514;SDS011;4295;51.024;7.000;2022-10-22T15:14:13;74.23;;;5.53;;
8514;SDS011;4295;51.024;7.000;2022-10-22T15:16:39;72.10;;;4.90;;
8514;SDS011;4295;51.024;7.000;2022-10-22T15:19:05;77.73;;;4.73;;
8514;SDS011;4295;51.024;7.000;2022-10-22T15:21:30;75.20;;;5.93;;
8514;SDS011;4295;51.024;7.000;2022-10-22T15:23:55;70.40;;;4.50;;
8514;SDS011;4295;51.024;7.000;2022-10-22T15:26:21;71.07;;;5.10;;
8514;SDS011;4295;51.024;7.000;2022-10-22T15:28:46;72.93;;;4.97;;
8514;SDS011;4295;51.024;7.000;2022-10-22T15:31:12;74.00;;;5.40;;
8514;SDS011;4295;51.024;7.000;2022-10-22T15:33:39;70.93;;;4.90;;
8514;SDS011;4295;51.024;7.000;2022-10-22T15:36:09;72.27;;;4.90;;
8514;SDS011;4295;51.024;7.000;2022-10-22T15:38:36;72.63;;;5.07;;
8514;SDS011;4295;51.024;7.000;2022-10-22T15:41:04;74.83;;;5.70;;
8514;SDS011;4295;51.024;7.000;2022-10-22T15:43:32;73.30;;;5.07;;
8514;SDS011;4295;51.024;7.000;2022-10-22T15:46:11;72.20;;;5.20;;
8514;SDS011;4295;51.024;7.000;2022-10-22T15:48:38;71.83;;;5.20;;
8514;SDS011;4295;51.024;7.000;2022-10-22T15:51:11;73.73;;;5.37;;
8514;SDS011;4295;51.024;7.000;2022-10-22T15:53:41;70.00;;;5.13;;
8514;SDS011;4295;51.024;7.000;2022-10-22T15:56:07;72.50;;;5.10;;
8514;SDS011;4295;51.024;7.000;2022-10-22T15:58:33;71.87;;;5.13;;
8514;SDS011;4295;51.024;7.000;2022-10-22T16:01:02;76.50;;;5.17;;
8514;SDS011;4295;51.024;7.000;2022-10-22T16:03:32;70.60;;;4.80;;
8514;SDS011;4295;51.024;7.000;2022-10-22T16:05:58;72.30;;;5.60;;
8514;SDS011;4295;51.024;7.000;2022-10-22T16:08:24;72.60;;;5.83;;
8514;SDS011;4295;51.024;7.000;2022-10-22T16:10:50;78.20;;;5.50;;
8514;SDS011;4295;51.024;7.000;2022-10-22T16:13:15;72.60;;;5.60;;
8514;SDS011;4295;51.024;7.000;2022-10-22T16:15:40;77.10;;;5.93;;
8514;SDS011;4295;51.024;7.000;2022-10-22T16:18:06;73.10;;;5.67;;
8514;SDS011;4295;51.024;7.000;2022-10-22T16:20:31;73.27;;;5.43;;
8514;SDS011;4295;51.024;7.000;2022-10-22T16:22:56;72.07;;;5.63;;
8514;SDS011;4295;51.024;7.000;2022-10-22T16:25:22;80.60;;;6.40;;
8514;SDS011;4295;51.024;7.000;2022-10-22T16:27:49;79.37;;;7.20;;
8514;SDS011;4295;51.024;7.000;2022-10-22T16:30:14;77.03;;;6.20;;
8514;SDS011;4295;51.024;7.000;2022-10-22T16:32:40;80.87;;;7.47;;
8514;SDS011;4295;51.024;7.000;2022-10-22T16:35:05;75.07;;;7.07;;
8514;SDS011;4295;51.024;7.000;2022-10-22T16:37:32;83.95;;;8.02;;
8514;SDS011;4295;51.024;7.000;2022-10-22T16:39:57;80.87;;;7.40;;
8514;SDS011;4295;51.024;7.000;2022-10-22T16:42:23;74.10;;;6.33;;
8514;SDS011;4295;51.024;7.000;2022-10-22T16:44:48;77.03;;;6.57;;
8514;SDS011;4295;51.024;7.000;2022-10-22T16:47:14;74.17;;;6.57;;
8514;SDS011;4295;51.024;7.000;2022-10-22T16:49:39;73.17;;;7.10;;
8514;SDS011;4295;51.024;7.000;2022-10-22T16:52:04;75.70;;;6.60;;
8514;SDS011;4295;51.024;7.000;2022-10-22T16:54:29;75.10;;;6.40;;
8514;SDS011;4295;51.024;7.000;2022-10-22T16:56:55;78.70;;;7.57;;
8514;SDS011;4295;51.024;7.000;2022-10-22T16:59:20;77.13;;;8.20;;
8514;SDS011;4295;51.024;7.000;2022-10-22T17:01:45;85.00;;;7.87;;
8514;SDS011;4295;51.024;7.000;2022-10-22T17:04:11;87.30;;;7.63;;
8514;SDS011;4295;51.024;7.000;2022-10-22T17:06:36;76.30;;;6.97;;
8514;SDS011;4295;51.024;7.000;2022-10-22T17:09:01;75.40;;;6.50;;
8514;SDS011;4295;51.024;7.000;2022-10-22T17:11:28;77.03;;;6.67;;
8514;SDS011;4295;51.024;7.000;2022-10-22T17:13:59;74.33;;;6.50;;
8514;SDS011;4295;51.024;7.000;2022-10-22T17:16:26;81.80;;;6.63;;
8514;SDS011;4295;51.024;7.000;2022-10-22T17:18:52;77.37;;;7.07;;
8514;SDS011;4295;51.024;7.000;2022-10-22T17:21:18;75.83;;;6.83;;